sensor_id;sensor_type;location;lat;lon;timestamp;temperature;humidity
17815;DHT22;9031;50.974;11.330;2022-11-18T00:01:30;7.60;99.90
17815;DHT22;9031;50.974;11.330;2022-11-18T00:03:55;7.70;99.90
17815;DHT22;9031;50.974;11.330;2022-11-18T00:06:24;7.70;99.90
17815;DHT22;9031;50.974;11.330;2022-11-18T00:08:50;7.70;99.90
17815;DHT22;9031;50.974;11.330;2022-11-18T00:11:19;7.70;99.90
17815;DHT22;9031;50.974;11.330;2022-11-18T00:14:04;7.70;99.90
17815;DHT22;9031;50.974;11.330;2022-11-18T00:16:54;7.70;99.90
17815;DHT22;9031;50.974;11.330;2022-11-18T00:19:23;7.70;99.90
17815;DHT22;9031;50.974;11.330;2022-11-18T00:21:49;7.70;99.90
17815;DHT22;9031;50.974;11.330;2022-11-18T00:24:15;7.70;99.90
17815;DHT22;9031;50.974;11.330;2022-11-18T00:26:40;7.70;99.90
17815;DHT22;9031;50.974;11.330;2022-11-18T00:29:08;7.70;99.90
17815;DHT22;9031;50.974;11.330;2022-11-18T00:31:34;7.70;99.90
17815;DHT22;9031;50.974;11.330;2022-11-18T00:34:00;7.60;99.90
17815;DHT22;9031;50.974;11.330;2022-11-18T00:36:25;7.60;99.90
17815;DHT22;9031;50.974;11.330;2022-11-18T00:38:51;7.60;99.90
17815;DHT22;9031;50.974;11.330;2022-11-18T00:41:16;7.70;99.90
17815;DHT22;9031;50.974;11.330;2022-11-18T00:43:42;7.70;99.90
17815;DHT22;9031;50.974;11.330;2022-11-18T00:46:10;7.60;99.90
17815;DHT22;9031;50.974;11.330;2022-11-18T00:48:36;7.60;99.90
17815;DHT22;9031;50.974;11.330;2022-11-18T00:51:16;7.60;99.90
17815;DHT22;9031;50.974;11.330;2022-11-18T00:53:42;7.70;99.90
17815;DHT22;9031;50.974;11.330;2022-11-18T00:56:08;7.70;99.90
17815;DHT22;9031;50.974;11.330;2022-11-18T00:58:34;7.60;99.90
17815;DHT22;9031;50.974;11.330;2022-11-18T01:01:00;7.60;99.90
17815;DHT22;9031;50.974;11.330;2022-11-18T01:03:27;7.60;99.90
17815;DHT22;9031;50.974;11.330;2022-11-18T01:05:53;7.60;99.90
17815;DHT22;9031;50.974;11.330;2022-11-18T01:08:18;7.60;99.90
17815;DHT22;9031;50.974;11.330;2022-11-18T01:10:45;7.70;99.90
17815;DHT22;9031;50.974;11.330;2022-11-18T01:13:13;7.60;99.90
17815;DHT22;9031;50.974;11.330;2022-11-18T01:15:52;7.50;99.90
17815;DHT22;9031;50.974;11.330;2022-11-18T01:18:21;7.60;99.90
17815;DHT22;9031;50.974;11.330;2022-11-18T01:20:47;7.60;99.90
17815;DHT22;9031;50.974;11.330;2022-11-18T01:23:13;7.60;99.90
17815;DHT22;9031;50.974;11.330;2022-11-18T01:25:41;7.70;99.90
17815;DHT22;9031;50.974;11.330;2022-11-18T01:28:07;7.70;99.90
17815;DHT22;9031;50.974;11.330;2022-11-18T01:30:34;7.60;99.90
17815;DHT22;9031;50.974;11.330;2022-11-18T01:33:01;7.60;99.90
17815;DHT22;9031;50.974;11.330;2022-11-18T01:35:28;7.60;99.90
17815;DHT22;9031;50.974;11.330;2022-11-18T01:37:54;7.70;99.90
17815;DHT22;9031;50.974;11.330;2022-11-18T01:40:19;7.60;99.90
17815;DHT22;9031;50.974;11.330;2022-11-18T01:42:45;7.70;99.90
17815;DHT22;9031;50.974;11.330;2022-11-18T01:45:30;7.70;99.90
17815;DHT22;9031;50.974;11.330;2022-11-18T01:48:02;7.80;99.90
17815;DHT22;9031;50.974;11.330;2022-11-18T01:50:28;7.80;99.90
17815;DHT22;9031;50.974;11.330;2022-11-18T01:52:59;7.70;99.90
17815;DHT22;9031;50.974;11.330;2022-11-18T01:55:32;7.70;99.90
17815;DHT22;9031;50.974;11.330;2022-11-18T01:58:06;7.50;99.90
17815;DHT22;9031;50.974;11.330;2022-11-18T02:00:34;7.40;99.90
17815;DHT22;9031;50.974;11.330;2022-11-18T02:03:01;7.40;99.90
17815;DHT22;9031;50.974;11.330;2022-11-18T02:05:27;7.40;99.90
17815;DHT22;9031;50.974;11.330;2022-11-18T02:07:53;7.30;99.90
17815;DHT22;9031;50.974;11.330;2022-11-18T02:10:21;7.20;99.90
17815;DHT22;9031;50.974;11.330;2022-11-18T02:12:49;7.30;99.90
17815;DHT22;9031;50.974;11.330;2022-11-18T02:15:15;7.30;99.90
17815;DHT22;9031;50.974;11.330;2022-11-18T02:18:00;7.30;99.90
17815;DHT22;9031;50.974;11.330;2022-11-18T02:20:36;7.30;99.90
17815;DHT22;9031;50.974;11.330;2022-11-18T02:23:30;7.40;99.90
17815;DHT22;9031;50.974;11.330;2022-11-18T02:28:57;7.30;99.90
17815;DHT22;9031;50.974;11.330;2022-11-18T02:34:23;7.30;99.90
17815;DHT22;9031;50.974;11.330;2022-11-18T02:36:54;7.20;99.90
17815;DHT22;9031;50.974;11.330;2022-11-18T02:39:35;7.20;99.90
17815;DHT22;9031;50.974;11.330;2022-11-18T02:42:06;7.20;99.90
17815;DHT22;9031;50.974;11.330;2022-11-18T02:44:38;7.20;99.90
17815;DHT22;9031;50.974;11.330;2022-11-18T02:47:07;7.20;99.90
17815;DHT22;9031;50.974;11.330;2022-11-18T02:49:44;7.30;99.90
17815;DHT22;9031;50.974;11.330;2022-11-18T02:52:12;7.30;99.90
17815;DHT22;9031;50.974;11.330;2022-11-18T02:54:41;7.30;99.90
17815;DHT22;9031;50.974;11.330;2022-11-18T02:57:09;7.30;99.90
17815;DHT22;9031;50.974;11.330;2022-11-18T02:59:34;7.30;99.90
17815;DHT22;9031;50.974;11.330;2022-11-18T03:02:00;7.30;99.90
17815;DHT22;9031;50.974;11.330;2022-11-18T03:04:25;7.10;99.90
17815;DHT22;9031;50.974;11.330;2022-11-18T03:07:21;7.10;99.90
17815;DHT22;9031;50.974;11.330;2022-11-18T03:09:50;7.00;99.90
17815;DHT22;9031;50.974;11.330;2022-11-18T03:12:41;7.00;99.90
17815;DHT22;9031;50.974;11.330;2022-11-18T03:21:23;7.10;99.90
17815;DHT22;9031;50.974;11.330;2022-11-18T03:23:36;7.10;99.90
17815;DHT22;9031;50.974;11.330;2022-11-18T03:26:20;7.10;99.90
17815;DHT22;9031;50.974;11.330;2022-11-18T03:29:15;7.00;99.90
17815;DHT22;9031;50.974;11.330;2022-11-18T03:31:53;7.10;99.90
17815;DHT22;9031;50.974;11.330;2022-11-18T03:34:29;7.10;99.90
17815;DHT22;9031;50.974;11.330;2022-11-18T03:36:59;7.10;99.90
17815;DHT22;9031;50.974;11.330;2022-11-18T03:39:27;7.10;99.90
17815;DHT22;9031;50.974;11.330;2022-11-18T03:42:15;7.10;99.90
17815;DHT22;9031;50.974;11.330;2022-11-18T03:44:48;7.10;99.90
17815;DHT22;9031;50.974;11.330;2022-11-18T03:47:24;7.10;99.90
17815;DHT22;9031;50.974;11.330;2022-11-18T03:49:59;7.20;99.90
17815;DHT22;9031;50.974;11.330;2022-11-18T03:52:29;7.20;99.90
17815;DHT22;9031;50.974;11.330;2022-11-18T03:54:59;7.20;99.90
17815;DHT22;9031;50.974;11.330;2022-11-18T03:57:36;7.20;99.90
17815;DHT22;9031;50.974;11.330;2022-11-18T04:00:08;7.00;99.90
17815;DHT22;9031;50.974;11.330;2022-11-18T04:02:36;7.00;99.90
17815;DHT22;9031;50.974;11.330;2022-11-18T04:05:03;6.90;99.90
17815;DHT22;9031;50.974;11.330;2022-11-18T04:07:51;7.00;99.90
17815;DHT22;9031;50.974;11.330;2022-11-18T04:11:01;7.00;99.90
17815;DHT22;9031;50.974;11.330;2022-11-18T04:13:08;6.90;99.90
17815;DHT22;9031;50.974;11.330;2022-11-18T04:15:40;6.80;99.90
17815;DHT22;9031;50.974;11.330;2022-11-18T04:18:07;6.80;99.90
17815;DHT22;9031;50.974;11.330;2022-11-18T04:20:32;6.80;99.90
17815;DHT22;9031;50.974;11.330;2022-11-18T04:22:58;6.90;99.90
17815;DHT22;9031;50.974;11.330;2022-11-18T04:25:24;7.00;99.90
17815;DHT22;9031;50.974;11.330;2022-11-18T04:27:50;7.00;99.90
17815;DHT22;9031;50.974;11.330;2022-11-18T04:30:16;7.00;99.90
17815;DHT22;9031;50.974;11.330;2022-11-18T04:32:42;6.90;99.90
17815;DHT22;9031;50.974;11.330;2022-11-18T04:35:07;6.70;99.90
17815;DHT22;9031;50.974;11.330;2022-11-18T04:37:33;6.70;99.90
17815;DHT22;9031;50.974;11.330;2022-11-18T04:39:59;6.70;99.90
17815;DHT22;9031;50.974;11.330;2022-11-18T04:42:24;6.70;99.90
17815;DHT22;9031;50.974;11.330;2022-11-18T04:44:50;6.70;99.90
17815;DHT22;9031;50.974;11.330;2022-11-18T04:47:15;6.70;99.90
17815;DHT22;9031;50.974;11.330;2022-11-18T04:49:41;6.70;99.90
17815;DHT22;9031;50.974;11.330;2022-11-18T04:52:07;6.80;99.90
17815;DHT22;9031;50.974;11.330;2022-11-18T04:54:32;6.80;99.90
17815;DHT22;9031;50.974;11.330;2022-11-18T04:56:58;6.80;99.90
17815;DHT22;9031;50.974;11.330;2022-11-18T04:59:28;6.70;99.90
17815;DHT22;9031;50.974;11.330;2022-11-18T05:01:54;6.70;99.90
17815;DHT22;9031;50.974;11.330;2022-11-18T05:04:23;6.70;99.90
17815;DHT22;9031;50.974;11.330;2022-11-18T05:06:49;6.70;99.90
17815;DHT22;9031;50.974;11.330;2022-11-18T05:09:16;6.60;99.90
17815;DHT22;9031;50.974;11.330;2022-11-18T05:11:42;6.60;99.90
17815;DHT22;9031;50.974;11.330;2022-11-18T05:14:27;6.60;99.90
17815;DHT22;9031;50.974;11.330;2022-11-18T05:16:53;6.60;99.90
17815;DHT22;9031;50.974;11.330;2022-11-18T05:19:19;6.50;99.90
17815;DHT22;9031;50.974;11.330;2022-11-18T05:21:44;6.50;99.90
17815;DHT22;9031;50.974;11.330;2022-11-18T05:24:10;6.60;99.90
17815;DHT22;9031;50.974;11.330;2022-11-18T05:26:36;6.60;99.90
17815;DHT22;9031;50.974;11.330;2022-11-18T05:29:01;6.80;99.90
17815;DHT22;9031;50.974;11.330;2022-11-18T05:31:27;6.70;99.90
17815;DHT22;9031;50.974;11.330;2022-11-18T05:33:53;6.80;99.90
17815;DHT22;9031;50.974;11.330;2022-11-18T05:36:20;6.80;99.90
17815;DHT22;9031;50.974;11.330;2022-11-18T05:38:46;6.80;99.90
17815;DHT22;9031;50.974;11.330;2022-11-18T05:41:11;6.70;99.90
17815;DHT22;9031;50.974;11.330;2022-11-18T05:44:00;6.60;99.90
17815;DHT22;9031;50.974;11.330;2022-11-18T05:46:27;6.60;99.90
17815;DHT22;9031;50.974;11.330;2022-11-18T05:48:53;6.60;99.90
17815;DHT22;9031;50.974;11.330;2022-11-18T05:51:18;6.60;99.90
17815;DHT22;9031;50.974;11.330;2022-11-18T05:53:44;6.50;99.90
17815;DHT22;9031;50.974;11.330;2022-11-18T05:56:34;6.40;99.90
17815;DHT22;9031;50.974;11.330;2022-11-18T05:59:01;6.30;99.90
17815;DHT22;9031;50.974;11.330;2022-11-18T06:01:31;6.40;99.90
17815;DHT22;9031;50.974;11.330;2022-11-18T06:03:58;6.50;99.90
17815;DHT22;9031;50.974;11.330;2022-11-18T06:06:24;6.50;99.90
17815;DHT22;9031;50.974;11.330;2022-11-18T06:09:04;6.50;99.90
17815;DHT22;9031;50.974;11.330;2022-11-18T06:11:37;6.50;99.90
17815;DHT22;9031;50.974;11.330;2022-11-18T06:14:15;6.50;99.90
17815;DHT22;9031;50.974;11.330;2022-11-18T06:16:46;6.50;99.90
17815;DHT22;9031;50.974;11.330;2022-11-18T06:19:14;6.50;99.90
17815;DHT22;9031;50.974;11.330;2022-11-18T06:21:40;6.60;99.90
17815;DHT22;9031;50.974;11.330;2022-11-18T06:24:06;6.60;99.90
17815;DHT22;9031;50.974;11.330;2022-11-18T06:26:34;6.60;99.90
17815;DHT22;9031;50.974;11.330;2022-11-18T06:29:00;6.50;99.90
17815;DHT22;9031;50.974;11.330;2022-11-18T06:31:25;6.50;99.90
17815;DHT22;9031;50.974;11.330;2022-11-18T06:33:51;6.50;99.90
17815;DHT22;9031;50.974;11.330;2022-11-18T06:36:16;6.50;99.90
17815;DHT22;9031;50.974;11.330;2022-11-18T06:38:42;6.50;99.90
17815;DHT22;9031;50.974;11.330;2022-11-18T06:41:07;6.50;99.90
17815;DHT22;9031;50.974;11.330;2022-11-18T06:43:33;6.40;99.90
17815;DHT22;9031;50.974;11.330;2022-11-18T06:46:14;6.40;99.90
17815;DHT22;9031;50.974;11.330;2022-11-18T06:48:59;6.40;99.90
17815;DHT22;9031;50.974;11.330;2022-11-18T06:51:25;6.40;99.90
17815;DHT22;9031;50.974;11.330;2022-11-18T06:53:51;6.40;99.90
17815;DHT22;9031;50.974;11.330;2022-11-18T06:56:17;6.40;99.90
17815;DHT22;9031;50.974;11.330;2022-11-18T06:58:44;6.40;99.90
17815;DHT22;9031;50.974;11.330;2022-11-18T07:01:14;6.40;99.90
17815;DHT22;9031;50.974;11.330;2022-11-18T07:03:41;6.30;99.90
17815;DHT22;9031;50.974;11.330;2022-11-18T07:06:08;6.40;99.90
17815;DHT22;9031;50.974;11.330;2022-11-18T07:08:35;6.30;99.90
17815;DHT22;9031;50.974;11.330;2022-11-18T07:11:02;6.30;99.90
17815;DHT22;9031;50.974;11.330;2022-11-18T07:13:30;6.30;99.90
17815;DHT22;9031;50.974;11.330;2022-11-18T07:15:55;6.40;99.90
17815;DHT22;9031;50.974;11.330;2022-11-18T07:18:25;6.40;99.90
17815;DHT22;9031;50.974;11.330;2022-11-18T07:20:50;6.20;99.90
17815;DHT22;9031;50.974;11.330;2022-11-18T07:23:16;6.20;99.90
17815;DHT22;9031;50.974;11.330;2022-11-18T07:25:41;6.20;99.90
17815;DHT22;9031;50.974;11.330;2022-11-18T07:28:07;6.20;99.90
17815;DHT22;9031;50.974;11.330;2022-11-18T07:30:32;6.10;99.90
17815;DHT22;9031;50.974;11.330;2022-11-18T07:32:58;6.10;99.90
17815;DHT22;9031;50.974;11.330;2022-11-18T07:35:23;6.10;99.90
17815;DHT22;9031;50.974;11.330;2022-11-18T07:37:49;6.00;99.90
17815;DHT22;9031;50.974;11.330;2022-11-18T07:40:14;6.00;99.90
17815;DHT22;9031;50.974;11.330;2022-11-18T07:42:40;5.90;99.90
17815;DHT22;9031;50.974;11.330;2022-11-18T07:45:11;5.90;99.90
17815;DHT22;9031;50.974;11.330;2022-11-18T07:47:36;5.90;99.90
17815;DHT22;9031;50.974;11.330;2022-11-18T07:50:03;5.80;99.90
17815;DHT22;9031;50.974;11.330;2022-11-18T07:52:29;5.70;99.90
17815;DHT22;9031;50.974;11.330;2022-11-18T07:54:55;5.80;99.90
17815;DHT22;9031;50.974;11.330;2022-11-18T07:57:20;5.80;99.90
17815;DHT22;9031;50.974;11.330;2022-11-18T07:59:46;5.80;99.90
17815;DHT22;9031;50.974;11.330;2022-11-18T08:02:11;5.80;99.90
17815;DHT22;9031;50.974;11.330;2022-11-18T08:04:37;5.80;99.90
17815;DHT22;9031;50.974;11.330;2022-11-18T08:07:03;5.80;99.90
17815;DHT22;9031;50.974;11.330;2022-11-18T08:09:28;5.80;99.90
17815;DHT22;9031;50.974;11.330;2022-11-18T08:11:54;5.70;99.90
17815;DHT22;9031;50.974;11.330;2022-11-18T08:14:19;5.70;99.90
17815;DHT22;9031;50.974;11.330;2022-11-18T08:16:47;5.70;99.90
17815;DHT22;9031;50.974;11.330;2022-11-18T08:19:12;5.70;99.90
17815;DHT22;9031;50.974;11.330;2022-11-18T08:21:37;5.70;99.90
17815;DHT22;9031;50.974;11.330;2022-11-18T08:24:03;5.80;99.90
17815;DHT22;9031;50.974;11.330;2022-11-18T08:26:29;5.70;99.90
17815;DHT22;9031;50.974;11.330;2022-11-18T08:28:55;5.70;99.90
17815;DHT22;9031;50.974;11.330;2022-11-18T08:31:23;5.70;99.90
17815;DHT22;9031;50.974;11.330;2022-11-18T08:33:54;5.70;99.90
17815;DHT22;9031;50.974;11.330;2022-11-18T08:36:21;5.70;99.90
17815;DHT22;9031;50.974;11.330;2022-11-18T08:38:47;5.70;99.90
17815;DHT22;9031;50.974;11.330;2022-11-18T08:41:15;5.70;99.90
17815;DHT22;9031;50.974;11.330;2022-11-18T08:43:41;5.70;99.90
17815;DHT22;9031;50.974;11.330;2022-11-18T08:46:06;5.60;99.90
17815;DHT22;9031;50.974;11.330;2022-11-18T08:48:32;5.50;99.90
17815;DHT22;9031;50.974;11.330;2022-11-18T08:50:58;5.40;99.90
17815;DHT22;9031;50.974;11.330;2022-11-18T08:53:23;5.40;99.90
17815;DHT22;9031;50.974;11.330;2022-11-18T08:55:56;5.40;99.90
17815;DHT22;9031;50.974;11.330;2022-11-18T08:58:22;5.40;99.90
17815;DHT22;9031;50.974;11.330;2022-11-18T09:00:48;5.40;99.90
17815;DHT22;9031;50.974;11.330;2022-11-18T09:03:13;5.30;99.90
17815;DHT22;9031;50.974;11.330;2022-11-18T09:05:39;5.40;99.90
17815;DHT22;9031;50.974;11.330;2022-11-18T09:08:04;5.40;99.90
17815;DHT22;9031;50.974;11.330;2022-11-18T09:10:30;5.40;99.90
17815;DHT22;9031;50.974;11.330;2022-11-18T09:12:55;5.50;99.90
17815;DHT22;9031;50.974;11.330;2022-11-18T09:15:21;5.50;99.90
17815;DHT22;9031;50.974;11.330;2022-11-18T09:17:48;5.50;99.90
17815;DHT22;9031;50.974;11.330;2022-11-18T09:20:15;5.40;99.90
17815;DHT22;9031;50.974;11.330;2022-11-18T09:22:41;5.40;99.90
17815;DHT22;9031;50.974;11.330;2022-11-18T09:25:07;5.50;99.90
17815;DHT22;9031;50.974;11.330;2022-11-18T09:27:32;5.40;99.90
17815;DHT22;9031;50.974;11.330;2022-11-18T09:29:58;5.30;99.90
17815;DHT22;9031;50.974;11.330;2022-11-18T09:32:23;5.40;99.90
17815;DHT22;9031;50.974;11.330;2022-11-18T09:34:49;5.40;99.90
17815;DHT22;9031;50.974;11.330;2022-11-18T09:37:14;5.40;99.90
17815;DHT22;9031;50.974;11.330;2022-11-18T09:39:40;5.40;99.90
17815;DHT22;9031;50.974;11.330;2022-11-18T09:42:32;5.40;99.90
17815;DHT22;9031;50.974;11.330;2022-11-18T09:47:37;5.40;99.90
17815;DHT22;9031;50.974;11.330;2022-11-18T09:50:11;5.30;99.90
17815;DHT22;9031;50.974;11.330;2022-11-18T09:52:43;5.30;99.90
17815;DHT22;9031;50.974;11.330;2022-11-18T09:55:12;5.20;99.90
17815;DHT22;9031;50.974;11.330;2022-11-18T09:57:42;5.20;99.90
17815;DHT22;9031;50.974;11.330;2022-11-18T10:00:26;5.20;99.90
17815;DHT22;9031;50.974;11.330;2022-11-18T10:03:03;5.20;99.90
17815;DHT22;9031;50.974;11.330;2022-11-18T10:05:49;5.20;99.90
17815;DHT22;9031;50.974;11.330;2022-11-18T10:08:24;5.10;99.90
17815;DHT22;9031;50.974;11.330;2022-11-18T10:11:17;5.10;99.90
17815;DHT22;9031;50.974;11.330;2022-11-18T10:19:19;5.10;99.90
17815;DHT22;9031;50.974;11.330;2022-11-18T10:22:13;5.10;99.90
17815;DHT22;9031;50.974;11.330;2022-11-18T10:24:48;5.10;99.90
17815;DHT22;9031;50.974;11.330;2022-11-18T10:27:14;5.10;99.90
17815;DHT22;9031;50.974;11.330;2022-11-18T10:29:41;5.10;99.90
17815;DHT22;9031;50.974;11.330;2022-11-18T10:32:12;5.20;99.90
17815;DHT22;9031;50.974;11.330;2022-11-18T10:34:57;5.30;99.90
17815;DHT22;9031;50.974;11.330;2022-11-18T10:37:41;5.20;99.90
17815;DHT22;9031;50.974;11.330;2022-11-18T10:40:25;5.10;99.90
17815;DHT22;9031;50.974;11.330;2022-11-18T10:42:51;5.00;99.90
17815;DHT22;9031;50.974;11.330;2022-11-18T10:47:57;4.90;99.90
17815;DHT22;9031;50.974;11.330;2022-11-18T10:50:32;4.90;99.90
17815;DHT22;9031;50.974;11.330;2022-11-18T10:52:58;4.90;99.90
17815;DHT22;9031;50.974;11.330;2022-11-18T10:55:28;4.70;99.90
17815;DHT22;9031;50.974;11.330;2022-11-18T10:57:57;4.90;99.90
17815;DHT22;9031;50.974;11.330;2022-11-18T11:00:42;4.80;99.90
17815;DHT22;9031;50.974;11.330;2022-11-18T11:05:45;4.70;99.90
17815;DHT22;9031;50.974;11.330;2022-11-18T11:08:23;4.60;99.90
17815;DHT22;9031;50.974;11.330;2022-11-18T11:10:56;4.50;99.90
17815;DHT22;9031;50.974;11.330;2022-11-18T11:13:25;4.50;99.90
17815;DHT22;9031;50.974;11.330;2022-11-18T11:15:53;4.50;99.90
17815;DHT22;9031;50.974;11.330;2022-11-18T11:18:26;4.60;99.90
17815;DHT22;9031;50.974;11.330;2022-11-18T11:21:19;4.60;99.90
17815;DHT22;9031;50.974;11.330;2022-11-18T11:23:45;4.80;99.90
17815;DHT22;9031;50.974;11.330;2022-11-18T11:32:14;4.80;99.90
17815;DHT22;9031;50.974;11.330;2022-11-18T11:37:57;4.60;99.90
17815;DHT22;9031;50.974;11.330;2022-11-18T11:46:00;4.70;99.90
17815;DHT22;9031;50.974;11.330;2022-11-18T11:51:34;4.50;99.90
17815;DHT22;9031;50.974;11.330;2022-11-18T11:56:37;4.50;99.90
17815;DHT22;9031;50.974;11.330;2022-11-18T11:59:18;4.40;99.90
17815;DHT22;9031;50.974;11.330;2022-11-18T12:04:45;4.20;99.90
17815;DHT22;9031;50.974;11.330;2022-11-18T12:07:16;4.30;99.90
17815;DHT22;9031;50.974;11.330;2022-11-18T12:10:01;4.40;99.90
17815;DHT22;9031;50.974;11.330;2022-11-18T12:12:37;4.20;99.90
17815;DHT22;9031;50.974;11.330;2022-11-18T12:20:58;4.00;99.90
17815;DHT22;9031;50.974;11.330;2022-11-18T12:23:26;4.00;99.90
17815;DHT22;9031;50.974;11.330;2022-11-18T12:25:57;4.10;99.90
17815;DHT22;9031;50.974;11.330;2022-11-18T12:28:41;3.90;99.90
17815;DHT22;9031;50.974;11.330;2022-11-18T12:33:51;3.80;99.90
17815;DHT22;9031;50.974;11.330;2022-11-18T12:36:37;3.80;99.90
17815;DHT22;9031;50.974;11.330;2022-11-18T12:41:56;3.70;99.90
17815;DHT22;9031;50.974;11.330;2022-11-18T12:44:42;3.80;99.90
17815;DHT22;9031;50.974;11.330;2022-11-18T12:47:09;3.60;99.90
17815;DHT22;9031;50.974;11.330;2022-11-18T12:52:02;3.40;99.90
17815;DHT22;9031;50.974;11.330;2022-11-18T12:54:36;3.50;99.90
17815;DHT22;9031;50.974;11.330;2022-11-18T12:57:12;3.50;99.90
17815;DHT22;9031;50.974;11.330;2022-11-18T12:59:39;3.60;99.90
17815;DHT22;9031;50.974;11.330;2022-11-18T13:02:26;3.60;99.90
17815;DHT22;9031;50.974;11.330;2022-11-18T13:05:10;3.50;99.90
17815;DHT22;9031;50.974;11.330;2022-11-18T13:07:43;3.50;99.90
17815;DHT22;9031;50.974;11.330;2022-11-18T13:10:30;3.50;99.90
17815;DHT22;9031;50.974;11.330;2022-11-18T13:12:58;3.50;99.90
17815;DHT22;9031;50.974;11.330;2022-11-18T13:15:23;3.50;99.90
17815;DHT22;9031;50.974;11.330;2022-11-18T13:18:15;3.40;99.90
17815;DHT22;9031;50.974;11.330;2022-11-18T13:20:42;3.40;99.90
17815;DHT22;9031;50.974;11.330;2022-11-18T13:25:53;3.30;99.90
17815;DHT22;9031;50.974;11.330;2022-11-18T13:28:37;3.30;99.90
17815;DHT22;9031;50.974;11.330;2022-11-18T13:34:06;3.00;99.90
17815;DHT22;9031;50.974;11.330;2022-11-18T13:36:32;2.90;99.90
17815;DHT22;9031;50.974;11.330;2022-11-18T13:39:04;3.00;99.90
17815;DHT22;9031;50.974;11.330;2022-11-18T13:41:32;3.00;99.90
17815;DHT22;9031;50.974;11.330;2022-11-18T13:44:17;3.00;99.90
17815;DHT22;9031;50.974;11.330;2022-11-18T13:46:46;3.00;99.90
17815;DHT22;9031;50.974;11.330;2022-11-18T13:49:16;3.10;99.90
17815;DHT22;9031;50.974;11.330;2022-11-18T13:51:43;3.20;99.90
17815;DHT22;9031;50.974;11.330;2022-11-18T13:54:13;3.20;99.90
17815;DHT22;9031;50.974;11.330;2022-11-18T13:56:40;3.10;99.90
17815;DHT22;9031;50.974;11.330;2022-11-18T13:59:15;2.90;99.90
17815;DHT22;9031;50.974;11.330;2022-11-18T14:01:43;2.90;99.90
17815;DHT22;9031;50.974;11.330;2022-11-18T14:04:20;2.80;99.90
17815;DHT22;9031;50.974;11.330;2022-11-18T14:06:46;2.70;99.90
17815;DHT22;9031;50.974;11.330;2022-11-18T14:09:29;2.70;99.90
17815;DHT22;9031;50.974;11.330;2022-11-18T14:14:41;2.80;99.90
17815;DHT22;9031;50.974;11.330;2022-11-18T14:17:24;2.80;99.90
17815;DHT22;9031;50.974;11.330;2022-11-18T14:19:57;2.80;99.90
17815;DHT22;9031;50.974;11.330;2022-11-18T14:22:28;2.80;99.90
17815;DHT22;9031;50.974;11.330;2022-11-18T14:25:23;2.60;99.90
17815;DHT22;9031;50.974;11.330;2022-11-18T14:27:51;2.60;99.90
17815;DHT22;9031;50.974;11.330;2022-11-18T14:30:26;2.60;99.90
17815;DHT22;9031;50.974;11.330;2022-11-18T14:36:13;2.60;99.90
17815;DHT22;9031;50.974;11.330;2022-11-18T14:38:51;2.60;99.90
17815;DHT22;9031;50.974;11.330;2022-11-18T14:41:19;2.60;99.90
17815;DHT22;9031;50.974;11.330;2022-11-18T14:44:05;2.60;99.90
17815;DHT22;9031;50.974;11.330;2022-11-18T14:46:32;2.60;99.90
17815;DHT22;9031;50.974;11.330;2022-11-18T14:49:01;2.60;99.90
17815;DHT22;9031;50.974;11.330;2022-11-18T14:51:26;2.70;99.90
17815;DHT22;9031;50.974;11.330;2022-11-18T14:53:52;2.60;99.90
17815;DHT22;9031;50.974;11.330;2022-11-18T14:56:28;2.60;99.90
17815;DHT22;9031;50.974;11.330;2022-11-18T14:58:54;2.70;99.90
17815;DHT22;9031;50.974;11.330;2022-11-18T15:01:19;2.70;99.90
17815;DHT22;9031;50.974;11.330;2022-11-18T15:03:45;2.50;99.90
17815;DHT22;9031;50.974;11.330;2022-11-18T15:06:13;2.40;99.90
17815;DHT22;9031;50.974;11.330;2022-11-18T15:08:39;2.30;99.90
17815;DHT22;9031;50.974;11.330;2022-11-18T15:11:05;2.50;99.90
17815;DHT22;9031;50.974;11.330;2022-11-18T15:13:30;2.40;99.90
17815;DHT22;9031;50.974;11.330;2022-11-18T15:15:56;2.30;99.90
17815;DHT22;9031;50.974;11.330;2022-11-18T15:18:21;2.30;99.90
17815;DHT22;9031;50.974;11.330;2022-11-18T15:20:50;2.40;99.90
17815;DHT22;9031;50.974;11.330;2022-11-18T15:23:15;2.40;99.90
17815;DHT22;9031;50.974;11.330;2022-11-18T15:25:41;2.20;99.90
17815;DHT22;9031;50.974;11.330;2022-11-18T15:28:09;2.20;99.90
17815;DHT22;9031;50.974;11.330;2022-11-18T15:30:34;2.20;99.90
17815;DHT22;9031;50.974;11.330;2022-11-18T15:33:00;2.10;99.90
17815;DHT22;9031;50.974;11.330;2022-11-18T15:35:25;2.10;99.90
17815;DHT22;9031;50.974;11.330;2022-11-18T15:37:51;2.10;99.90
17815;DHT22;9031;50.974;11.330;2022-11-18T15:40:16;2.10;99.90
17815;DHT22;9031;50.974;11.330;2022-11-18T15:42:42;2.10;99.90
17815;DHT22;9031;50.974;11.330;2022-11-18T15:45:08;2.00;99.90
17815;DHT22;9031;50.974;11.330;2022-11-18T15:47:33;2.00;99.90
17815;DHT22;9031;50.974;11.330;2022-11-18T15:49:59;2.20;99.90
17815;DHT22;9031;50.974;11.330;2022-11-18T15:52:24;2.10;99.90
17815;DHT22;9031;50.974;11.330;2022-11-18T15:54:51;2.00;99.90
17815;DHT22;9031;50.974;11.330;2022-11-18T15:57:17;2.00;99.90
17815;DHT22;9031;50.974;11.330;2022-11-18T15:59:42;1.80;99.90
17815;DHT22;9031;50.974;11.330;2022-11-18T16:02:09;1.80;99.90
17815;DHT22;9031;50.974;11.330;2022-11-18T16:04:35;1.80;99.90
17815;DHT22;9031;50.974;11.330;2022-11-18T16:07:00;1.80;99.90
17815;DHT22;9031;50.974;11.330;2022-11-18T16:09:27;1.90;99.90
17815;DHT22;9031;50.974;11.330;2022-11-18T16:12:13;2.10;99.90
17815;DHT22;9031;50.974;11.330;2022-11-18T16:14:57;1.90;99.90
17815;DHT22;9031;50.974;11.330;2022-11-18T16:17:42;1.80;99.90
17815;DHT22;9031;50.974;11.330;2022-11-18T16:20:08;1.80;99.90
17815;DHT22;9031;50.974;11.330;2022-11-18T16:22:34;1.80;99.90
17815;DHT22;9031;50.974;11.330;2022-11-18T16:24:59;1.70;99.90
17815;DHT22;9031;50.974;11.330;2022-11-18T16:27:25;1.50;99.90
17815;DHT22;9031;50.974;11.330;2022-11-18T16:29:50;1.60;99.90
17815;DHT22;9031;50.974;11.330;2022-11-18T16:32:16;1.50;99.90
17815;DHT22;9031;50.974;11.330;2022-11-18T16:34:41;1.40;99.90
17815;DHT22;9031;50.974;11.330;2022-11-18T16:37:07;1.30;99.90
17815;DHT22;9031;50.974;11.330;2022-11-18T16:39:33;1.50;99.90
17815;DHT22;9031;50.974;11.330;2022-11-18T16:42:00;1.50;99.90
17815;DHT22;9031;50.974;11.330;2022-11-18T16:44:26;1.50;99.90
17815;DHT22;9031;50.974;11.330;2022-11-18T16:46:55;1.30;99.90
17815;DHT22;9031;50.974;11.330;2022-11-18T16:49:23;1.30;99.90
17815;DHT22;9031;50.974;11.330;2022-11-18T16:51:51;1.40;99.90
17815;DHT22;9031;50.974;11.330;2022-11-18T16:54:25;1.40;99.90
17815;DHT22;9031;50.974;11.330;2022-11-18T16:56:53;1.20;99.90
17815;DHT22;9031;50.974;11.330;2022-11-18T16:59:23;1.30;99.90
17815;DHT22;9031;50.974;11.330;2022-11-18T17:01:50;1.20;99.90
17815;DHT22;9031;50.974;11.330;2022-11-18T17:04:17;1.10;99.90
17815;DHT22;9031;50.974;11.330;2022-11-18T17:06:43;1.10;99.90
17815;DHT22;9031;50.974;11.330;2022-11-18T17:09:15;1.10;99.90
17815;DHT22;9031;50.974;11.330;2022-11-18T17:11:41;1.20;99.90
17815;DHT22;9031;50.974;11.330;2022-11-18T17:14:06;1.30;99.90
17815;DHT22;9031;50.974;11.330;2022-11-18T17:16:32;1.10;99.90